Time;durP1;ratioP1;P1;durP2;ratioP2;P2;SDS_P1;SDS_P2;PMS_P1;PMS_P2;Temp;Humidity;BMP_temperature;BMP_pressure;BME280_temperature;BME280_humidity;BME280_pressure;Samples;Min_cycle;Max_cycle;Signal;HPM_P1;HPM_P2
2021/04/15 00:00:08;;;;;;;;;;;;;;;7.21;72.21;99924.66;1728650;83;20227;-77
2021/04/15 00:02:35;;;;;;;;;;;;;;;7.09;72.51;99925.55;1729100;81;20223;-76
2021/04/15 00:05:03;;;;;;;;;;;;;;;7.00;72.80;99928.84;1727358;81;21788;-76
2021/04/15 00:07:30;;;;;;;;;;;;;;;6.92;72.98;99925.91;1740552;81;20252;-76
2021/04/15 00:09:59;;;;;;;;;;;;;;;6.89;73.08;99930.92;1751119;81;21980;-75
2021/04/15 00:12:27;;;;;;;;;;;;;;;6.91;73.13;99930.80;1740613;81;20477;-77
2021/04/15 00:14:54;;;;;;;;;;;;;;;6.92;73.28;99924.60;1729372;81;20219;-77
2021/04/15 00:17:21;;;;;;;;;;;;;;;6.93;73.32;99926.27;1725709;81;20917;-76
2021/04/15 00:19:51;;;;;;;;;;;;;;;6.92;73.45;99923.28;1738599;81;20271;-78
2021/04/15 00:22:19;;;;;;;;;;;;;;;6.93;73.52;99917.92;1735438;81;21405;-76
2021/04/15 00:24:46;;;;;;;;;;;;;;;6.94;73.60;99917.45;1780137;80;20248;-76
2021/04/15 00:27:14;;;;;;;;;;;;;;;6.95;73.71;99913.87;1734384;81;20235;-77
2021/04/15 00:29:42;;;;;;;;;;;;;;;6.94;73.79;99913.03;1728314;83;20315;-76
2021/04/15 00:32:09;;;;;;;;;;;;;;;6.94;73.84;99909.57;1741894;81;20252;-75
2021/04/15 00:34:37;;;;;;;;;;;;;;;6.92;74.11;99911.00;1726307;83;22077;-75
2021/04/15 00:37:06;;;;;;;;;;;;;;;6.89;74.20;99914.69;1732989;80;20326;-77
2021/04/15 00:39:34;;;;;;;;;;;;;;;6.87;74.29;99914.44;1722979;81;20282;-77
2021/04/15 00:42:01;;;;;;;;;;;;;;;6.87;74.34;99914.44;1727663;81;20477;-76
2021/04/15 00:44:28;;;;;;;;;;;;;;;6.84;74.45;99906.77;1719688;81;20497;-75
2021/04/15 00:46:57;;;;;;;;;;;;;;;6.83;74.67;99912.48;1697296;83;22473;-75
2021/04/15 00:49:46;;;;;;;;;;;;;;;6.82;74.86;99908.19;1730001;81;20242;-75
2021/04/15 00:52:16;;;;;;;;;;;;;;;6.82;75.03;99902.94;1766677;80;20283;-76
2021/04/15 00:54:47;;;;;;;;;;;;;;;6.78;75.04;99902.81;1725956;82;20910;-76
2021/04/15 00:57:27;;;;;;;;;;;;;;;6.77;75.10;99900.30;1701472;82;20219;-76
2021/04/15 00:59:54;;;;;;;;;;;;;;;6.75;75.10;99895.61;1703013;82;21976;-76
2021/04/15 01:02:22;;;;;;;;;;;;;;;6.73;75.06;99895.72;1701317;82;20375;-74
2021/04/15 01:04:55;;;;;;;;;;;;;;;6.72;75.12;99896.67;1689691;82;20228;-75
2021/04/15 01:07:22;;;;;;;;;;;;;;;6.70;75.20;99891.17;1713745;83;21354;-75
2021/04/15 01:09:50;;;;;;;;;;;;;;;6.74;75.32;99893.45;1707125;82;20275;-76
2021/04/15 01:12:28;;;;;;;;;;;;;;;6.77;75.38;99887.17;1689197;83;22931;-76
2021/04/15 01:14:59;;;;;;;;;;;;;;;6.78;75.38;99885.75;1693121;82;20378;-76
2021/04/15 01:17:35;;;;;;;;;;;;;;;6.77;75.40;99882.77;1707156;82;20245;-75
2021/04/15 01:20:22;;;;;;;;;;;;;;;6.76;75.44;99878.94;1713726;82;20308;-76
2021/04/15 01:22:53;;;;;;;;;;;;;;;6.74;75.62;99877.71;1710731;82;20216;-74
2021/04/15 01:25:34;;;;;;;;;;;;;;;6.71;75.70;99879.25;1685625;82;22343;-74
2021/04/15 01:28:25;;;;;;;;;;;;;;;6.69;75.76;99873.28;1724695;82;21048;-75
2021/04/15 01:31:05;;;;;;;;;;;;;;;6.67;75.88;99872.56;1719035;82;20217;-76
2021/04/15 01:33:39;;;;;;;;;;;;;;;6.68;76.03;99876.86;1702279;82;20224;-75
2021/04/15 01:36:28;;;;;;;;;;;;;;;6.69;76.17;99865.88;1691227;84;20228;-75
2021/04/15 01:38:58;;;;;;;;;;;;;;;6.70;76.29;99874.95;1707028;82;22515;-74
2021/04/15 01:41:45;;;;;;;;;;;;;;;6.71;76.35;99869.23;1707802;82;20223;-74
2021/04/15 01:44:17;;;;;;;;;;;;;;;6.70;76.38;99869.70;1717302;82;20118;-75
2021/04/15 01:46:44;;;;;;;;;;;;;;;6.67;76.41;99869.09;1708212;82;20539;-74
2021/04/15 01:49:12;;;;;;;;;;;;;;;6.63;76.50;99870.24;1704188;84;20306;-78
2021/04/15 01:51:41;;;;;;;;;;;;;;;6.61;76.55;99866.42;1676943;82;22081;-74
2021/04/15 01:54:15;;;;;;;;;;;;;;;6.60;76.62;99866.89;1716799;82;21261;-75
2021/04/15 01:56:47;;;;;;;;;;;;;;;6.56;76.71;99864.14;1715834;82;20223;-75
2021/04/15 01:59:19;;;;;;;;;;;;;;;6.53;76.80;99861.70;1721908;82;20478;-74
2021/04/15 02:01:49;;;;;;;;;;;;;;;6.50;76.86;99859.78;1722116;81;20235;-75
2021/04/15 02:04:23;;;;;;;;;;;;;;;6.51;76.98;99859.67;1730649;81;22085;-75
2021/04/15 02:06:51;;;;;;;;;;;;;;;;;;1740949;81;20385;-75
2021/04/15 02:09:19;;;;;;;;;;;;;;;6.56;77.32;99856.71;1729423;81;20222;-75
2021/04/15 02:11:49;;;;;;;;;;;;;;;6.57;77.38;99853.16;1731585;81;20472;-75
2021/04/15 02:14:24;;;;;;;;;;;;;;;6.58;77.47;99858.30;1778153;80;20410;-75
2021/04/15 02:16:53;;;;;;;;;;;;;;;6.59;77.48;99856.03;1744721;81;20792;-77
2021/04/15 02:19:26;;;;;;;;;;;;;;;6.63;77.52;99856.64;1731404;81;20271;-75
2021/04/15 02:21:57;;;;;;;;;;;;;;;6.68;77.63;99857.17;1723380;83;20223;-76
2021/04/15 02:24:33;;;;;;;;;;;;;;;6.73;77.64;99857.66;1729328;81;20441;-74
2021/04/15 02:27:07;;;;;;;;;;;;;;;6.77;77.71;99860.45;1737774;80;20298;-74
2021/04/15 02:29:37;;;;;;;;;;;;;;;6.82;77.82;99857.48;1726645;81;22369;-76
2021/04/15 02:32:09;;;;;;;;;;;;;;;6.87;77.83;99857.52;1730564;81;20230;-77
2021/04/15 02:34:42;;;;;;;;;;;;;;;6.91;77.79;99852.05;1699759;83;20232;-76
2021/04/15 02:37:21;;;;;;;;;;;;;;;6.91;77.69;99848.94;1719737;81;20534;-76
2021/04/15 02:39:54;;;;;;;;;;;;;;;6.89;77.59;99848.22;1728520;81;20223;-75
2021/04/15 02:42:25;;;;;;;;;;;;;;;6.91;77.56;99855.98;1729417;81;21892;-75
2021/04/15 02:45:01;;;;;;;;;;;;;;;6.92;77.55;99852.41;1748035;81;20226;-75
2021/04/15 02:47:36;;;;;;;;;;;;;;;6.92;77.45;99850.61;1749878;81;20728;-75
2021/04/15 02:50:06;;;;;;;;;;;;;;;6.89;77.35;99849.53;1736357;81;20475;-76
2021/04/15 02:52:36;;;;;;;;;;;;;;;6.89;77.33;99850.38;1700395;81;20253;-74
2021/04/15 02:55:05;;;;;;;;;;;;;;;6.86;77.30;99842.73;1743067;80;23068;-74
2021/04/15 02:57:35;;;;;;;;;;;;;;;6.84;77.25;99843.29;1727146;82;20382;-75
2021/04/15 03:00:21;;;;;;;;;;;;;;;6.80;77.23;99847.09;1691551;83;20227;-75
2021/04/15 03:02:50;;;;;;;;;;;;;;;6.80;77.26;99844.95;1728116;81;20306;-75
2021/04/15 03:05:22;;;;;;;;;;;;;;;6.79;77.28;99841.96;1708084;83;20224;-75
2021/04/15 03:07:49;;;;;;;;;;;;;;;6.80;77.25;99841.02;1730019;82;22073;-75
2021/04/15 03:10:20;;;;;;;;;;;;;;;6.77;77.23;99839.45;1712806;82;20397;-75
2021/04/15 03:12:52;;;;;;;;;;;;;;;6.77;77.23;99834.68;1713036;81;20226;-76
2021/04/15 03:15:25;;;;;;;;;;;;;;;6.76;77.21;99843.03;1693379;83;20305;-75
2021/04/15 03:17:56;;;;;;;;;;;;;;;6.74;77.20;99842.75;1700160;83;20224;-75
2021/04/15 03:20:31;;;;;;;;;;;;;;;6.72;77.17;99844.18;1711659;83;22052;-75
2021/04/15 03:23:03;;;;;;;;;;;;;;;6.71;77.12;99839.05;1701731;82;20217;-76
2021/04/15 03:25:30;;;;;;;;;;;;;;;6.72;77.08;99842.88;1720810;82;20221;-75
2021/04/15 03:28:00;;;;;;;;;;;;;;;6.71;77.12;99839.88;1712641;82;20925;-74
2021/04/15 03:30:46;;;;;;;;;;;;;;;6.73;77.15;99841.08;1732305;81;20410;-75
2021/04/15 03:33:28;;;;;;;;;;;;;;;6.75;77.17;99842.64;1707897;82;21895;-74
2021/04/15 03:36:20;;;;;;;;;;;;;;;6.77;77.21;99846.02;1704287;82;20231;-74
2021/04/15 03:38:50;;;;;;;;;;;;;;;6.78;77.21;99842.44;1706211;82;20223;-75
2021/04/15 03:41:38;;;;;;;;;;;;;;;6.79;77.20;99841.96;1709490;82;20425;-74
2021/04/15 03:44:11;;;;;;;;;;;;;;;6.78;77.23;99841.13;1701120;82;20517;-75
2021/04/15 03:46:44;;;;;;;;;;;;;;;6.80;77.27;99842.32;1713875;82;21899;-75
2021/04/15 03:49:22;;;;;;;;;;;;;;;6.80;77.30;99837.91;1701856;82;20460;-77
2021/04/15 03:51:52;;;;;;;;;;;;;;;6.83;77.32;99847.34;1709101;82;20398;-75
2021/04/15 03:54:23;;;;;;;;;;;;;;;6.84;77.42;99847.22;1698265;82;20473;-75
2021/04/15 03:56:52;;;;;;;;;;;;;;;6.85;77.54;99846.75;1718767;82;20431;-75
2021/04/15 03:59:25;;;;;;;;;;;;;;;6.86;77.65;99853.23;1731567;81;22062;-71
2021/04/15 04:01:53;;;;;;;;;;;;;;;6.92;77.70;99853.72;1695299;84;21285;-73
2021/04/15 04:04:27;;;;;;;;;;;;;;;6.97;77.81;99859.02;1705846;83;20270;-73
2021/04/15 04:06:57;;;;;;;;;;;;;;;7.07;77.86;99865.75;1705400;84;20496;-73
2021/04/15 04:09:40;;;;;;;;;;;;;;;7.14;77.87;99866.95;1712401;82;20229;-70
2021/04/15 04:12:10;;;;;;;;;;;;;;;7.23;77.92;99867.59;1693169;84;21902;-76
2021/04/15 04:14:47;;;;;;;;;;;;;;;7.32;77.95;99871.33;1700629;82;20374;-75
2021/04/15 04:17:35;;;;;;;;;;;;;;;7.40;77.98;99869.81;1690545;84;20224;-77
2021/04/15 04:20:03;;;;;;;;;;;;;;;7.49;77.98;99874.03;1692581;84;20470;-78
2021/04/15 04:22:43;;;;;;;;;;;;;;;7.56;77.99;99865.58;1701866;83;20288;-79
2021/04/15 04:25:33;;;;;;;;;;;;;;;7.63;78.03;99869.43;1696784;82;22074;-79
2021/04/15 04:28:22;;;;;;;;;;;;;;;7.70;78.00;99866.67;1697986;82;20391;-78
2021/04/15 04:30:55;;;;;;;;;;;;;;;7.78;77.91;99862.64;1698575;84;20510;-78
2021/04/15 04:33:26;;;;;;;;;;;;;;;7.84;77.87;99862.19;1694266;82;20535;-78
2021/04/15 04:35:55;;;;;;;;;;;;;;;7.90;77.81;99867.79;1687852;83;20260;-74
2021/04/15 04:38:22;;;;;;;;;;;;;;;7.95;77.72;99864.83;1676689;84;22513;-76
2021/04/15 04:40:55;;;;;;;;;;;;;;;7.98;77.63;99864.58;1695018;83;21114;-77
2021/04/15 04:43:45;;;;;;;;;;;;;;;8.02;77.56;99864.72;1702530;82;20241;-78
2021/04/15 04:46:19;;;;;;;;;;;;;;;8.07;77.51;99863.04;1721223;82;20895;-76
2021/04/15 04:48:55;;;;;;;;;;;;;;;8.15;77.47;99864.60;1699355;82;20488;-75
2021/04/15 04:51:23;;;;;;;;;;;;;;;8.19;77.37;99862.08;1695748;83;22067;-75
2021/04/15 04:53:51;;;;;;;;;;;;;;;8.22;77.24;99850.86;1689763;81;20391;-75
2021/04/15 04:56:27;;;;;;;;;;;;;;;8.27;77.09;99858.38;1712525;83;20224;-76
2021/04/15 04:59:03;;;;;;;;;;;;;;;8.29;76.95;99854.66;1706014;82;20317;-76
2021/04/15 05:01:31;;;;;;;;;;;;;;;8.33;76.80;99860.55;1706860;83;20205;-76
2021/04/15 05:04:01;;;;;;;;;;;;;;;8.37;76.70;99867.27;1708449;83;22963;-76
2021/04/15 05:06:33;;;;;;;;;;;;;;;8.43;76.60;99862.02;1707577;83;20381;-77
2021/04/15 05:09:18;;;;;;;;;;;;;;;8.46;76.35;99864.39;1710492;82;20263;-76
2021/04/15 05:11:46;;;;;;;;;;;;;;;8.46;76.06;99858.64;1677078;82;20687;-77
2021/04/15 05:14:15;;;;;;;;;;;;;;;8.48;75.87;99863.30;1729216;82;20223;-76
2021/04/15 05:16:49;;;;;;;;;;;;;;;8.50;75.76;99860.58;1712380;83;22118;-78
2021/04/15 05:19:17;;;;;;;;;;;;;;;8.54;75.77;99862.00;1711185;82;20360;-77
2021/04/15 05:21:44;;;;;;;;;;;;;;;8.59;75.76;99858.05;1721612;82;20231;-77
2021/04/15 05:24:27;;;;;;;;;;;;;;;8.64;75.73;99864.26;1709688;82;20352;-77
2021/04/15 05:26:57;;;;;;;;;;;;;;;8.65;75.68;99865.92;1719027;81;20414;-79
2021/04/15 05:29:27;;;;;;;;;;;;;;;8.68;75.76;99864.84;1711239;82;22792;-74
2021/04/15 05:31:55;;;;;;;;;;;;;;;8.73;75.74;99866.64;1724643;82;20448;-74
2021/04/15 05:34:32;;;;;;;;;;;;;;;8.77;75.69;99866.26;1713268;82;20504;-75
2021/04/15 05:37:02;;;;;;;;;;;;;;;8.77;75.58;99867.58;1719012;82;20271;-74
2021/04/15 05:39:32;;;;;;;;;;;;;;;8.79;75.57;99859.58;1714211;82;20278;-75
2021/04/15 05:42:09;;;;;;;;;;;;;;;8.82;75.57;99865.42;1723449;82;21889;-74
2021/04/15 05:44:49;;;;;;;;;;;;;;;8.84;75.48;99866.61;1768273;81;21123;-74
2021/04/15 05:47:26;;;;;;;;;;;;;;;8.84;75.30;99860.86;1742384;81;20217;-75
2021/04/15 05:50:00;;;;;;;;;;;;;;;8.86;75.29;99856.78;1704244;82;20315;-76
2021/04/15 05:52:44;;;;;;;;;;;;;;;8.90;75.21;99858.23;1713395;82;20836;-81
2021/04/15 05:55:14;;;;;;;;;;;;;;;8.94;75.12;99859.64;1710577;82;22072;-83
2021/04/15 05:57:50;;;;;;;;;;;;;;;8.97;74.85;99858.55;1722616;81;21239;-82
2021/04/15 06:00:26;;;;;;;;;;;;;;;8.98;74.71;99860.25;1704182;82;20236;-80
2021/04/15 06:03:21;;;;;;;;;;;;;;;9.00;74.60;99860.95;1708014;82;20467;-85
2021/04/15 06:06:00;;;;;;;;;;;;;;;9.05;74.55;99866.19;1690638;82;20620;-81
2021/04/15 06:08:29;;;;;;;;;;;;;;;9.10;74.52;99866.67;1719394;81;21917;-83
2021/04/15 06:11:18;;;;;;;;;;;;;;;9.12;74.42;99866.06;1711761;82;20494;-82
2021/04/15 06:13:52;;;;;;;;;;;;;;;9.17;74.42;99863.90;1683771;84;20494;-82
2021/04/15 06:16:25;;;;;;;;;;;;;;;9.23;74.38;99859.91;1708954;82;20250;-88
2021/04/15 06:19:02;;;;;;;;;;;;;;;9.28;74.38;99859.55;1721520;82;20212;-83
2021/04/15 06:21:32;;;;;;;;;;;;;;;9.33;74.32;99861.30;1695986;84;21930;-79
2021/04/15 06:24:07;;;;;;;;;;;;;;;9.34;74.15;99862.49;1712644;82;20390;-78
2021/04/15 06:26:49;;;;;;;;;;;;;;;9.33;74.07;99858.19;1715526;81;20494;-82
2021/04/15 06:29:29;;;;;;;;;;;;;;;9.33;74.03;99860.82;1713489;82;20467;-80
2021/04/15 06:31:57;;;;;;;;;;;;;;;9.37;73.99;99853.03;1715890;82;20304;-81
2021/04/15 06:34:25;;;;;;;;;;;;;;;9.45;73.98;99861.61;1716387;82;22063;-77
2021/04/15 06:37:02;;;;;;;;;;;;;;;9.50;73.92;99865.19;1717855;82;20734;-79
2021/04/15 06:39:38;;;;;;;;;;;;;;;9.55;73.51;99863.00;1722136;82;20290;-86
2021/04/15 06:42:16;;;;;;;;;;;;;;;9.55;73.17;99866.95;1720076;82;20491;-82
2021/04/15 06:45:08;;;;;;;;;;;;;;;9.55;72.96;99859.88;1715494;82;20220;-80
2021/04/15 06:47:55;;;;;;;;;;;;;;;9.60;73.05;99867.42;1743616;81;22982;-85
2021/04/15 06:50:28;;;;;;;;;;;;;;;9.72;72.96;99866.38;1715661;82;20396;-82
2021/04/15 06:53:20;;;;;;;;;;;;;;;9.83;72.28;99865.48;1712488;82;20456;-86
2021/04/15 06:56:04;;;;;;;;;;;;;;;9.91;72.04;99865.67;1685161;83;21450;-77
2021/04/15 06:59:02;;;;;;;;;;;;;;;10.04;71.62;99862.36;1673833;84;20277;-81
2021/04/15 07:02:01;;;;;;;;;;;;;;;10.18;71.14;99865.96;1664791;84;22098;-85
2021/04/15 07:04:36;;;;;;;;;;;;;;;10.29;70.27;99866.39;1658796;84;20437;-79
2021/04/15 07:07:26;;;;;;;;;;;;;;;10.41;69.28;99863.16;1677011;84;20231;-77
2021/04/15 07:10:30;;;;;;;;;;;;;;;10.51;69.10;99867.99;1668493;84;20362;-76
2021/04/15 07:13:18;;;;;;;;;;;;;;;10.67;67.94;99864.86;1665153;85;20260;-80
2021/04/15 07:15:50;;;;;;;;;;;;;;;10.82;67.47;99867.00;1664909;84;22070;-87
2021/04/15 07:18:48;;;;;;;;;;;;;;;10.87;65.64;99863.45;1665745;84;20384;-83
2021/04/15 07:21:28;;;;;;;;;;;;;;;10.83;65.90;99861.23;1674842;84;20260;-82
2021/04/15 07:24:07;;;;;;;;;;;;;;;10.89;65.90;99854.89;1664851;84;20220;-86
2021/04/15 07:26:54;;;;;;;;;;;;;;;10.97;65.50;99857.34;1665869;84;20220;-84
2021/04/15 07:29:45;;;;;;;;;;;;;;;10.97;65.21;99851.58;1664776;84;21907;-85
2021/04/15 07:32:26;;;;;;;;;;;;;;;10.97;65.08;99844.13;1663647;84;20525;-84
2021/04/15 07:35:33;;;;;;;;;;;;;;;11.04;65.00;99846.58;1661942;84;20235;-82
2021/04/15 07:38:28;;;;;;;;;;;;;;;11.12;64.98;99843.60;1662536;84;20263;-81
2021/04/15 07:41:16;;;;;;;;;;;;;;;11.28;64.76;99843.52;1663267;84;20298;-81
2021/04/15 07:44:02;;;;;;;;;;;;;;;11.39;64.41;99850.02;1665593;85;22064;-79
2021/04/15 07:47:01;;;;;;;;;;;;;;;11.49;64.27;99847.37;1650453;86;20304;-78
2021/04/15 07:49:52;;;;;;;;;;;;;;;11.51;64.30;99846.24;1656640;86;20258;-73
2021/04/15 07:52:51;;;;;;;;;;;;;;;11.56;64.49;99845.31;1664262;84;20724;-74
2021/04/15 07:55:46;;;;;;;;;;;;;;;11.59;64.10;99844.22;1635596;85;20353;-74
2021/04/15 07:58:39;;;;;;;;;;;;;;;11.51;64.42;99839.63;1708272;83;22080;-82
2021/04/15 08:01:19;;;;;;;;;;;;;;;11.50;64.09;99851.19;1713675;82;20834;-80
2021/04/15 08:03:51;;;;;;;;;;;;;;;11.38;63.68;99847.83;1711482;82;20241;-76
2021/04/15 08:06:26;;;;;;;;;;;;;;;11.31;64.11;99843.27;1705422;82;21440;-75
2021/04/15 08:09:02;;;;;;;;;;;;;;;11.37;64.58;99840.05;1705106;82;20517;-79
2021/04/15 08:11:39;;;;;;;;;;;;;;;11.52;65.04;99833.36;1713747;82;21852;-76
2021/04/15 08:14:22;;;;;;;;;;;;;;;11.80;64.86;99836.97;1713779;82;21057;-77
2021/04/15 08:17:09;;;;;;;;;;;;;;;11.91;64.53;99830.19;1716658;82;20227;-79
2021/04/15 08:20:00;;;;;;;;;;;;;;;12.13;64.25;99830.31;1698544;83;21439;-79
2021/04/15 08:22:47;;;;;;;;;;;;;;;12.27;63.34;99819.77;1698499;83;20219;-85
2021/04/15 08:25:22;;;;;;;;;;;;;;;12.34;62.08;99816.84;1695462;82;21903;-80
2021/04/15 08:28:06;;;;;;;;;;;;;;;12.28;61.59;99823.58;1680816;82;20291;-79
2021/04/15 08:30:42;;;;;;;;;;;;;;;12.32;60.87;99820.97;1690679;82;20249;-75
2021/04/15 08:33:39;;;;;;;;;;;;;;;12.29;60.36;99814.66;1696478;83;20314;-82
2021/04/15 08:36:32;;;;;;;;;;;;;;;12.19;59.29;99821.80;1730164;82;20222;-84
2021/04/15 08:39:27;;;;;;;;;;;;;;;11.90;60.30;99831.16;1723132;82;21176;-83
2021/04/15 08:42:13;;;;;;;;;;;;;;;11.89;60.23;99822.89;1710463;82;20279;-81
2021/04/15 08:45:00;;;;;;;;;;;;;;;11.88;60.48;99828.33;1697996;82;20224;-79
2021/04/15 08:48:07;;;;;;;;;;;;;;;11.97;60.07;99830.95;1705282;84;20248;-77
2021/04/15 08:50:39;;;;;;;;;;;;;;;12.12;60.56;99828.65;1690733;82;20411;-76
2021/04/15 08:53:33;;;;;;;;;;;;;;;12.20;60.40;99829.25;1701476;82;22814;-76
2021/04/15 08:56:04;;;;;;;;;;;;;;;12.33;60.61;99821.31;1725864;81;20232;-79
2021/04/15 08:58:50;;;;;;;;;;;;;;;12.55;60.51;99821.44;1737864;81;20589;-77
2021/04/15 09:01:21;;;;;;;;;;;;;;;12.68;60.25;99815.77;1731826;81;20310;-74
2021/04/15 09:04:05;;;;;;;;;;;;;;;12.68;59.72;99815.77;1725927;82;20226;-75
2021/04/15 09:06:47;;;;;;;;;;;;;;;12.69;60.27;99817.93;1731688;81;22806;-76
2021/04/15 09:09:50;;;;;;;;;;;;;;;12.84;60.33;99819.09;1713266;83;20810;-75
2021/04/15 09:13:00;;;;;;;;;;;;;;;13.04;59.71;99820.63;1731073;81;21291;-76
2021/04/15 09:15:43;;;;;;;;;;;;;;;13.07;57.77;99817.66;1727199;83;20319;-75
2021/04/15 09:18:17;;;;;;;;;;;;;;;12.82;57.21;99814.41;1729143;81;20218;-76
2021/04/15 09:21:22;;;;;;;;;;;;;;;12.53;57.98;99810.13;1725264;81;21955;-75
2021/04/15 09:24:06;;;;;;;;;;;;;;;12.38;58.79;99819.56;1731121;81;20442;-77
2021/04/15 09:27:01;;;;;;;;;;;;;;;12.41;58.75;99819.75;1729596;81;20243;-76
2021/04/15 09:29:52;;;;;;;;;;;;;;;12.29;58.43;99819.12;1728595;81;20317;-76
2021/04/15 09:32:34;;;;;;;;;;;;;;;12.14;59.52;99811.30;1729939;81;20223;-76
2021/04/15 09:38:24;;;;;;;;;;;;;;;12.23;59.84;99811.25;1725942;82;20392;-78
2021/04/15 09:41:10;;;;;;;;;;;;;;;12.53;59.45;99810.62;1713484;81;20269;-82
2021/04/15 09:44:03;;;;;;;;;;;;;;;12.87;58.53;99801.56;1731237;82;20479;-78
2021/04/15 09:46:49;;;;;;;;;;;;;;;13.09;57.13;99805.08;1727683;82;20903;-77
2021/04/15 09:49:28;;;;;;;;;;;;;;;13.13;57.14;99810.44;1728870;81;21490;-78
2021/04/15 09:52:16;;;;;;;;;;;;;;;13.29;56.73;99807.11;1713008;81;20487;-79
2021/04/15 09:55:20;;;;;;;;;;;;;;;13.29;55.57;99809.77;1680194;83;20248;-77
2021/04/15 09:58:08;;;;;;;;;;;;;;;13.21;55.59;99798.25;1701439;83;20711;-75
2021/04/15 10:00:40;;;;;;;;;;;;;;;13.21;55.72;99803.55;1701649;82;20223;-75
2021/04/15 10:03:16;;;;;;;;;;;;;;;13.33;56.08;99797.88;1693004;84;21377;-79
2021/04/15 10:05:53;;;;;;;;;;;;;;;13.60;55.97;99798.22;1693445;83;20579;-74
2021/04/15 10:08:58;;;;;;;;;;;;;;;13.88;53.54;99798.08;1688551;85;20304;-76
2021/04/15 10:11:40;;;;;;;;;;;;;;;13.71;54.04;99801.14;1694482;83;20307;-76
2021/04/15 10:14:18;;;;;;;;;;;;;;;13.62;54.77;99801.58;1701103;83;20780;-75
2021/04/15 10:17:13;;;;;;;;;;;;;;;13.75;55.74;99801.98;1701720;83;21904;-76
2021/04/15 10:20:20;;;;;;;;;;;;;;;14.06;55.23;99800.67;1698926;84;20286;-76
2021/04/15 10:23:20;;;;;;;;;;;;;;;14.24;54.42;99793.45;1702856;84;20224;-78
2021/04/15 10:25:58;;;;;;;;;;;;;;;14.28;54.48;99797.45;1720837;82;20267;-76
2021/04/15 10:28:31;;;;;;;;;;;;;;;14.19;53.50;99801.09;1730314;82;20277;-76
2021/04/15 10:31:22;;;;;;;;;;;;;;;13.94;53.70;99802.77;1721534;82;20216;-77
2021/04/15 10:34:14;;;;;;;;;;;;;;;13.78;54.27;99800.84;1726845;83;20369;-77
2021/04/15 10:36:54;;;;;;;;;;;;;;;13.72;53.91;99801.48;1716715;82;20434;-77
2021/04/15 10:39:47;;;;;;;;;;;;;;;13.49;54.01;99799.80;1701283;83;20299;-79
2021/04/15 10:42:42;;;;;;;;;;;;;;;13.40;54.32;99798.91;1706765;82;20283;-78
2021/04/15 10:45:21;;;;;;;;;;;;;;;13.45;54.37;99793.16;1709955;82;20433;-77
2021/04/15 10:48:09;;;;;;;;;;;;;;;13.53;54.28;99793.22;1688885;84;20228;-77
2021/04/15 10:50:49;;;;;;;;;;;;;;;13.60;54.36;99797.39;1672417;84;20271;-75
2021/04/15 10:53:36;;;;;;;;;;;;;;;13.67;53.32;99786.01;1664632;85;20476;-77
2021/04/15 10:56:27;;;;;;;;;;;;;;;13.54;53.32;99796.70;1672427;83;20233;-76
2021/04/15 10:59:03;;;;;;;;;;;;;;;13.34;53.83;99793.41;1635718;85;22018;-79
2021/04/15 11:01:46;;;;;;;;;;;;;;;13.19;54.23;99783.82;1692649;83;20293;-80
2021/04/15 11:04:23;;;;;;;;;;;;;;;13.14;54.51;99786.91;1696959;84;20248;-76
2021/04/15 11:06:58;;;;;;;;;;;;;;;13.07;54.47;99792.97;1697470;84;21466;-78
2021/04/15 11:09:39;;;;;;;;;;;;;;;12.94;54.50;99784.08;1695919;84;20283;-75
2021/04/15 11:12:17;;;;;;;;;;;;;;;12.84;54.86;99789.45;1695207;84;21839;-76
2021/04/15 11:14:59;;;;;;;;;;;;;;;12.72;54.84;99787.15;1694214;84;20232;-77
2021/04/15 11:17:38;;;;;;;;;;;;;;;12.58;55.49;99788.02;1711687;82;20301;-78
2021/04/15 11:20:15;;;;;;;;;;;;;;;12.56;55.80;99778.55;1693787;84;21491;-81
2021/04/15 11:22:56;;;;;;;;;;;;;;;12.64;55.90;99779.11;1672198;85;20405;-80
2021/04/15 11:25:30;;;;;;;;;;;;;;;12.77;56.17;99777.78;1685991;84;21189;-83
2021/04/15 11:28:02;;;;;;;;;;;;;;;12.81;55.40;99771.18;1691088;83;21418;-79
2021/04/15 11:30:37;;;;;;;;;;;;;;;12.75;55.65;99774.45;1696536;83;20228;-77
2021/04/15 11:33:09;;;;;;;;;;;;;;;12.78;56.14;99775.96;1718868;82;20306;-77
2021/04/15 11:35:36;;;;;;;;;;;;;;;12.95;56.00;99772.98;1720104;82;20314;-78
2021/04/15 11:38:07;;;;;;;;;;;;;;;13.00;55.25;99776.83;1699128;83;23387;-78
2021/04/15 11:40:40;;;;;;;;;;;;;;;12.85;55.45;99769.08;1659791;85;20418;-77
2021/04/15 11:43:23;;;;;;;;;;;;;;;12.70;56.26;99764.78;1700862;83;20299;-78
2021/04/15 11:45:50;;;;;;;;;;;;;;;12.56;56.83;99768.79;1677008;83;21775;-76
2021/04/15 11:48:23;;;;;;;;;;;;;;;12.40;57.25;99767.27;1693114;83;20280;-80
2021/04/15 11:51:15;;;;;;;;;;;;;;;12.36;57.78;99763.27;1697662;83;21329;-76
2021/04/15 11:53:53;;;;;;;;;;;;;;;12.28;58.27;99769.30;1691559;83;20295;-76
2021/04/15 11:56:33;;;;;;;;;;;;;;;12.19;58.94;99770.17;1693328;83;20229;-74
2021/04/15 11:59:19;;;;;;;;;;;;;;;12.12;59.54;99769.09;1695724;83;20474;-75
2021/04/15 12:01:48;;;;;;;;;;;;;;;12.13;59.96;99761.48;1644699;83;36256;-75
2021/04/15 12:04:23;;;;;;;;;;;;;;;12.11;60.04;99760.81;1694468;83;21895;-75
2021/04/15 12:06:57;;;;;;;;;;;;;;;12.16;60.31;99761.22;1695452;83;20450;-77
2021/04/15 12:09:32;;;;;;;;;;;;;;;12.30;60.34;99758.55;1692921;83;20433;-75
2021/04/15 12:12:03;;;;;;;;;;;;;;;12.42;60.24;99756.03;1691294;83;20752;-75
2021/04/15 12:14:31;;;;;;;;;;;;;;;12.51;59.87;99751.66;1694922;83;20601;-76
2021/04/15 12:17:09;;;;;;;;;;;;;;;12.59;60.07;99751.27;1626332;84;22202;-75
2021/04/15 12:20:01;;;;;;;;;;;;;;;12.77;59.81;99743.82;1664698;84;21244;-76
2021/04/15 12:22:34;;;;;;;;;;;;;;;12.94;59.69;99742.16;1665455;84;20279;-75
2021/04/15 12:25:17;;;;;;;;;;;;;;;13.10;59.02;99744.44;1692732;83;20469;-76
2021/04/15 12:27:47;;;;;;;;;;;;;;;13.24;58.46;99750.23;1695266;83;20247;-74
2021/04/15 12:30:21;;;;;;;;;;;;;;;13.43;58.36;99742.91;1695953;83;22886;-73
2021/04/15 12:33:05;;;;;;;;;;;;;;;13.60;58.36;99738.52;1699079;83;20365;-75
2021/04/15 12:35:39;;;;;;;;;;;;;;;13.79;57.96;99738.80;1696379;83;20263;-75
2021/04/15 12:38:28;;;;;;;;;;;;;;;13.94;56.82;99732.41;1700113;83;21742;-77
2021/04/15 12:41:00;;;;;;;;;;;;;;;13.95;57.02;99736.23;1694142;83;20283;-76
2021/04/15 12:43:30;;;;;;;;;;;;;;;14.15;57.09;99731.50;1697879;83;22022;-75
2021/04/15 12:46:20;;;;;;;;;;;;;;;14.38;56.38;99730.44;1698700;84;20489;-75
2021/04/15 12:48:54;;;;;;;;;;;;;;;14.67;56.36;99728.70;1696966;84;20232;-74
2021/04/15 12:51:25;;;;;;;;;;;;;;;15.00;54.87;99723.41;1689771;84;20481;-75
2021/04/15 12:53:54;;;;;;;;;;;;;;;15.25;54.62;99722.41;1668694;83;20236;-75
2021/04/15 12:56:24;;;;;;;;;;;;;;;15.37;52.95;99720.23;1693182;83;21884;-73
2021/04/15 12:58:53;;;;;;;;;;;;;;;15.13;52.34;99721.89;1694290;83;20411;-75
2021/04/15 13:01:20;;;;;;;;;;;;;;;14.98;52.88;99722.74;1694452;83;20248;-74
2021/04/15 13:03:48;;;;;;;;;;;;;;;14.78;52.89;99724.39;1694102;83;21878;-73
2021/04/15 13:06:20;;;;;;;;;;;;;;;14.76;53.51;99722.38;1695138;83;20272;-77
2021/04/15 13:08:55;;;;;;;;;;;;;;;14.92;53.83;99722.06;1677481;83;20550;-75
2021/04/15 13:11:28;;;;;;;;;;;;;;;14.94;52.99;99722.22;1695084;83;20377;-75
2021/04/15 13:14:01;;;;;;;;;;;;;;;14.91;53.83;99722.56;1693693;81;20287;-75
2021/04/15 13:16:41;;;;;;;;;;;;;;;15.18;53.77;99719.58;1695454;83;20451;-75
2021/04/15 13:19:25;;;;;;;;;;;;;;;15.34;53.74;99729.35;1692248;83;20268;-77
2021/04/15 13:22:11;;;;;;;;;;;;;;;15.68;53.20;99720.36;1693843;83;22193;-76
2021/04/15 13:24:51;;;;;;;;;;;;;;;15.83;52.16;99717.83;1692866;83;20369;-76
2021/04/15 13:27:37;;;;;;;;;;;;;;;15.74;52.01;99723.67;1695991;83;20224;-76
2021/04/15 13:30:10;;;;;;;;;;;;;;;15.64;51.90;99718.55;1691986;83;20479;-76
2021/04/15 13:32:58;;;;;;;;;;;;;;;15.53;51.83;99720.67;1694428;83;20223;-76
2021/04/15 13:35:46;;;;;;;;;;;;;;;15.38;52.02;99724.55;1688531;83;22661;-76
2021/04/15 13:38:37;;;;;;;;;;;;;;;15.35;52.71;99722.23;1697429;83;21694;-75
2021/04/15 13:41:11;;;;;;;;;;;;;;;15.44;52.72;99722.52;1688929;83;20223;-74
2021/04/15 13:43:46;;;;;;;;;;;;;;;15.37;52.15;99725.05;1707280;82;20311;-74
2021/04/15 13:46:29;;;;;;;;;;;;;;;15.03;52.64;99721.23;1702022;83;20362;-73
2021/04/15 13:49:20;;;;;;;;;;;;;;;14.83;53.60;99720.73;1709983;82;21254;-74
2021/04/15 13:51:49;;;;;;;;;;;;;;;14.86;54.27;99725.73;1718911;82;21299;-73